Time;durP1;ratioP1;P1;durP2;ratioP2;P2;SDS_P1;SDS_P2;PMS_P1;PMS_P2;Temp;Humidity;BMP_temperature;BMP_pressure;BME280_temperature;BME280_humidity;BME280_pressure;Samples;Min_cycle;Max_cycle;Signal;HPM_P1;HPM_P2
2022/10/16 00:00:42;;;;;;;14.20;8.40;;;;;;;12.39;90.58;98834.55;214583;1312;25804;-73
2022/10/16 00:05:44;;;;;;;17.40;8.70;;;;;;;12.34;90.75;98832.16;214712;1310;25313;-73
2022/10/16 00:10:46;;;;;;;12.90;7.80;;;;;;;12.29;91.01;98837.94;214576;1312;25367;-72
2022/10/16 00:15:48;;;;;;;10.90;7.10;;;;;;;12.26;91.12;98830.71;214577;1312;23859;-73
2022/10/16 00:20:50;;;;;;;13.80;8.40;;;;;;;12.22;91.22;98827.56;214443;1312;25268;-73
2022/10/16 00:25:58;;;;;;;11.80;7.60;;;;;;;12.17;91.33;98829.38;214498;1312;24313;-73
2022/10/16 00:31:03;;;;;;;11.50;8.10;;;;;;;12.11;91.42;98833.03;214453;1307;22569;-73
2022/10/16 00:36:07;;;;;;;12.20;8.90;;;;;;;12.08;91.55;98835.66;214682;1293;25390;-73
2022/10/16 00:41:13;;;;;;;11.50;7.90;;;;;;;12.04;91.67;98836.17;214565;1304;22605;-73
2022/10/16 00:46:19;;;;;;;15.70;9.70;;;;;;;12.03;91.80;98832.38;214456;1312;24269;-73
2022/10/16 00:51:25;;;;;;;14.70;9.90;;;;;;;12.01;92.01;98827.77;214613;1311;22479;-73
2022/10/16 00:56:27;;;;;;;12.30;8.20;;;;;;;12.00;91.99;98822.88;214755;1312;24330;-73
2022/10/16 01:01:29;;;;;;;14.00;8.10;;;;;;;11.97;91.91;98825.80;214696;1312;22559;-73
2022/10/16 01:07:10;;;;;;;15.40;9.50;;;;;;;11.96;91.99;98825.52;214441;1312;22455;-73
2022/10/16 01:12:18;;;;;;;15.20;10.00;;;;;;;11.93;92.23;98830.60;214715;1311;23035;-73
2022/10/16 01:17:47;;;;;;;15.30;10.10;;;;;;;11.92;92.12;98829.00;214674;1304;22476;-73
2022/10/16 01:23:07;;;;;;;15.40;9.80;;;;;;;11.90;92.33;98833.05;214454;1311;22609;-73
2022/10/16 01:28:13;;;;;;;16.60;11.20;;;;;;;11.87;92.29;98831.10;214646;1310;23230;-73
2022/10/16 01:33:19;;;;;;;18.20;11.20;;;;;;;11.85;92.30;98828.74;214663;1311;22478;-72
2022/10/16 01:38:34;;;;;;;21.40;12.30;;;;;;;11.81;92.47;98825.84;214505;1311;22486;-73
2022/10/16 01:43:43;;;;;;;20.00;11.70;;;;;;;11.77;92.49;98831.72;214594;1311;22601;-73
2022/10/16 01:48:47;;;;;;;17.90;11.60;;;;;;;11.72;92.65;98835.07;214456;1306;22717;-73
2022/10/16 01:53:54;;;;;;;19.40;12.10;;;;;;;11.68;92.70;98837.95;214496;1309;25307;-73
2022/10/16 01:59:09;;;;;;;17.90;11.00;;;;;;;11.63;92.73;98841.91;214601;1311;22612;-73
2022/10/16 02:04:18;;;;;;;21.30;12.00;;;;;;;11.61;92.87;98847.97;214472;1312;22600;-73
2022/10/16 02:09:21;;;;;;;19.10;11.10;;;;;;;11.58;92.89;98853.43;214394;1304;144150;-74
2022/10/16 02:14:24;;;;;;;17.50;11.50;;;;;;;11.58;92.89;98856.98;214637;1309;24446;-73
2022/10/16 02:19:26;;;;;;;19.00;11.30;;;;;;;11.57;92.99;98860.54;214640;1308;22493;-73
2022/10/16 02:24:50;;;;;;;19.70;11.50;;;;;;;11.54;93.00;98859.84;214591;1312;22520;-73
2022/10/16 02:29:58;;;;;;;16.70;10.60;;;;;;;11.48;93.01;98863.04;214579;1312;22601;-73
2022/10/16 02:35:02;;;;;;;17.60;10.60;;;;;;;11.41;93.01;98847.42;214538;1311;24257;-73
2022/10/16 02:40:04;;;;;;;14.30;8.90;;;;;;;11.36;93.36;98845.58;214526;1312;24269;-73
2022/10/16 02:45:08;;;;;;;15.00;9.00;;;;;;;11.33;93.59;98847.48;214385;1312;23441;-73
2022/10/16 02:50:10;;;;;;;11.90;8.00;;;;;;;11.32;93.71;98843.97;214514;1312;25395;-73
2022/10/16 02:55:12;;;;;;;13.90;9.30;;;;;;;11.33;93.91;98846.95;214479;1311;23159;-73
2022/10/16 03:00:17;;;;;;;12.60;8.30;;;;;;;11.40;94.10;98849.11;214445;1311;25419;-73
2022/10/16 03:05:18;;;;;;;12.90;8.00;;;;;;;11.51;94.60;98855.05;214491;1311;25389;-73
2022/10/16 03:10:20;;;;;;;12.80;8.90;;;;;;;11.66;94.77;98859.70;214463;1312;22469;-73
2022/10/16 03:15:22;;;;;;;14.20;8.90;;;;;;;11.79;94.74;98862.65;214559;1312;24398;-73
2022/10/16 03:20:24;;;;;;;12.00;8.70;;;;;;;11.91;94.67;98865.68;214501;1311;22547;-73
2022/10/16 03:25:26;;;;;;;15.10;8.40;;;;;;;12.03;94.54;98874.98;214581;1311;22501;-73
2022/10/16 03:30:28;;;;;;;13.70;8.50;;;;;;;12.14;94.49;98879.53;214612;1312;22539;-73
2022/10/16 03:35:30;;;;;;;11.80;8.20;;;;;;;12.26;94.41;98882.18;214613;1310;22518;-73
2022/10/16 03:40:32;;;;;;;12.60;8.80;;;;;;;12.35;94.11;98884.59;214462;1311;24449;-73
2022/10/16 03:45:34;;;;;;;14.20;8.50;;;;;;;12.44;94.01;98880.86;214576;1312;25404;-73
2022/10/16 03:50:35;;;;;;;13.40;8.00;;;;;;;12.53;93.55;98887.80;214674;1311;25445;-73
2022/10/16 03:55:37;;;;;;;12.40;7.90;;;;;;;12.57;93.25;98887.94;214528;1311;22464;-73
2022/10/16 04:00:43;;;;;;;15.70;8.90;;;;;;;12.55;93.01;98886.58;214646;1309;23385;-73
2022/10/16 04:05:45;;;;;;;14.80;9.20;;;;;;;12.48;92.73;98890.10;214625;1310;22474;-73
2022/10/16 04:10:47;;;;;;;12.30;8.30;;;;;;;12.40;92.65;98891.48;214593;1309;22469;-72
2022/10/16 04:15:49;;;;;;;17.80;9.60;;;;;;;12.32;92.61;98894.36;214654;1310;22519;-73
2022/10/16 04:20:51;;;;;;;13.60;8.20;;;;;;;12.26;92.76;98896.68;214639;1311;25557;-74
2022/10/16 04:25:52;;;;;;;12.90;9.10;;;;;;;12.17;92.76;98903.27;214695;1311;26422;-74
2022/10/16 04:30:54;;;;;;;16.00;10.20;;;;;;;12.08;92.88;98900.27;214661;1310;22528;-75
2022/10/16 04:36:00;;;;;;;18.60;11.20;;;;;;;11.98;92.78;98899.25;214568;1310;25472;-73
2022/10/16 04:41:01;;;;;;;17.00;11.00;;;;;;;11.89;92.71;98903.30;214506;1310;24247;-73
2022/10/16 04:46:04;;;;;;;17.90;10.70;;;;;;;11.81;92.91;98909.05;214614;1310;23728;-73
2022/10/16 04:51:06;;;;;;;14.40;9.50;;;;;;;11.72;92.95;98918.48;214568;1310;22474;-73
2022/10/16 04:56:08;;;;;;;17.50;10.80;;;;;;;11.63;93.22;98918.56;214721;1310;22579;-72
2022/10/16 05:01:10;;;;;;;15.30;9.70;;;;;;;11.56;93.34;98931.17;214507;1309;22460;-73
2022/10/16 05:06:12;;;;;;;19.50;11.60;;;;;;;11.51;93.60;98931.62;214502;1310;26494;-74
2022/10/16 05:11:13;;;;;;;19.70;11.10;;;;;;;11.48;93.85;98940.41;214700;1310;25125;-73
2022/10/16 05:16:15;;;;;;;14.50;9.70;;;;;;;11.45;93.84;98945.80;214438;1310;22479;-73
2022/10/16 05:21:17;;;;;;;15.50;10.60;;;;;;;11.42;94.13;98946.87;214784;1310;26493;-73
2022/10/16 05:26:19;;;;;;;19.30;11.10;;;;;;;11.38;94.27;98947.94;214536;1310;25449;-73
2022/10/16 05:31:21;;;;;;;16.40;11.10;;;;;;;11.37;94.31;98946.12;214654;1310;24434;-73
2022/10/16 05:36:22;;;;;;;20.00;12.60;;;;;;;11.38;94.31;98950.57;214505;1310;22965;-73
2022/10/16 05:41:26;;;;;;;20.30;12.10;;;;;;;11.41;94.45;98954.39;214495;1310;22532;-73
2022/10/16 05:46:27;;;;;;;20.10;12.00;;;;;;;11.43;94.64;98953.50;214496;1310;25489;-73
2022/10/16 05:51:29;;;;;;;23.10;12.60;;;;;;;11.48;94.62;98964.70;214457;1310;24305;-73
2022/10/16 05:56:31;;;;;;;22.10;11.80;;;;;;;11.52;94.68;98970.72;214443;1310;24377;-73
2022/10/16 06:01:33;;;;;;;19.80;10.60;;;;;;;11.58;94.54;98978.96;214603;1310;23235;-74
2022/10/16 06:06:36;;;;;;;15.80;10.60;;;;;;;11.63;94.55;98984.35;214531;1310;22471;-73
2022/10/16 06:11:38;;;;;;;19.40;11.40;;;;;;;11.71;94.57;98985.27;214540;1310;25420;-73
2022/10/16 06:16:39;;;;;;;17.10;10.60;;;;;;;11.85;94.77;98990.00;214548;1310;24433;-73
2022/10/16 06:21:41;;;;;;;14.10;9.60;;;;;;;12.01;94.70;99001.34;214437;1304;22521;-73
2022/10/16 06:26:43;;;;;;;18.10;10.50;;;;;;;12.18;94.67;99004.08;214431;1309;25382;-73
2022/10/16 06:31:45;;;;;;;18.40;10.50;;;;;;;12.39;94.65;99015.52;214387;1310;23395;-74
2022/10/16 06:36:47;;;;;;;18.60;12.20;;;;;;;12.59;94.43;99025.27;214600;1310;22489;-73
2022/10/16 06:41:48;;;;;;;18.60;11.10;;;;;;;12.76;94.20;99031.44;214524;1310;22546;-73
2022/10/16 06:46:51;;;;;;;17.20;10.30;;;;;;;12.89;93.90;99031.69;214644;1310;24416;-73
2022/10/16 06:51:53;;;;;;;14.50;9.70;;;;;;;13.02;93.76;99020.03;214440;1309;23895;-72
2022/10/16 06:56:54;;;;;;;16.00;10.50;;;;;;;13.22;93.58;99019.27;214577;1310;22476;-73
2022/10/16 07:01:56;;;;;;;14.20;9.70;;;;;;;13.49;93.56;99022.52;214690;1310;22975;-73
2022/10/16 07:07:00;;;;;;;15.90;10.00;;;;;;;13.72;93.07;99024.89;214524;1310;24379;-74
2022/10/16 07:12:06;;;;;;;14.90;10.40;;;;;;;13.84;92.24;99033.94;214535;1310;22549;-73
2022/10/16 07:17:08;;;;;;;17.30;10.60;;;;;;;13.98;91.84;99040.27;214382;1310;22471;-72
2022/10/16 07:22:09;;;;;;;15.20;10.00;;;;;;;14.19;91.70;99050.55;214569;1310;22473;-73
2022/10/16 07:27:11;;;;;;;15.50;10.00;;;;;;;14.48;91.32;99048.15;214522;1310;22602;-74
2022/10/16 07:32:13;;;;;;;15.70;10.00;;;;;;;14.76;90.69;99060.30;214561;1310;22516;-73
2022/10/16 07:37:15;;;;;;;15.60;9.50;;;;;;;14.92;89.53;99066.80;214439;1310;25107;-74
2022/10/16 07:42:17;;;;;;;18.50;9.30;;;;;;;15.07;89.17;99067.59;214568;1310;24265;-74
2022/10/16 07:47:18;;;;;;;13.30;8.60;;;;;;;15.23;88.42;99066.20;214558;1310;22572;-74
2022/10/16 07:52:20;;;;;;;16.60;9.60;;;;;;;15.36;87.32;99072.09;214690;1310;22479;-74
2022/10/16 07:57:22;;;;;;;14.50;8.90;;;;;;;15.48;86.99;99071.48;214719;1310;26495;-74
2022/10/16 08:02:24;;;;;;;12.40;8.90;;;;;;;15.60;86.34;99069.23;214637;1304;22620;-74
2022/10/16 08:07:26;;;;;;;11.60;8.00;;;;;;;15.70;85.87;99071.13;214676;1306;22574;-72
2022/10/16 08:12:28;;;;;;;13.60;8.40;;;;;;;15.84;85.23;99077.30;214686;1296;22589;-73
2022/10/16 08:17:30;;;;;;;15.90;8.80;;;;;;;16.06;84.83;99083.48;214414;1310;24274;-75
2022/10/16 08:22:32;;;;;;;13.90;8.80;;;;;;;16.43;84.25;99082.09;214618;1310;25257;-74
2022/10/16 08:27:34;;;;;;;12.10;8.40;;;;;;;16.79;83.43;99093.40;214543;1310;24343;-74
2022/10/16 08:32:35;;;;;;;12.10;7.60;;;;;;;16.92;81.70;99092.17;214309;1310;23550;-74
2022/10/16 08:37:38;;;;;;;9.90;7.70;;;;;;;16.96;81.46;99097.05;214489;1310;22602;-74
2022/10/16 08:42:52;;;;;;;12.70;7.90;;;;;;;17.00;81.23;99097.91;214716;1310;22605;-75
2022/10/16 08:48:23;;;;;;;9.60;7.50;;;;;;;17.15;81.48;99098.12;214709;1309;22695;-74
2022/10/16 08:53:38;;;;;;;13.30;8.10;;;;;;;17.37;80.72;99101.16;214622;1310;24359;-73
2022/10/16 08:58:39;;;;;;;11.10;7.20;;;;;;;17.57;80.24;99099.03;214617;1310;22498;-74
2022/10/16 09:04:20;;;;;;;13.90;7.70;;;;;;;17.76;78.89;99097.97;214694;1309;25048;-74
2022/10/16 09:09:54;;;;;;;10.30;7.40;;;;;;;18.03;78.68;99098.48;214491;1310;24173;-74
2022/10/16 09:15:12;;;;;;;9.80;7.20;;;;;;;18.20;76.62;99100.52;214659;1304;22456;-74
2022/10/16 09:20:26;;;;;;;9.90;7.10;;;;;;;18.35;76.41;99107.23;214529;1297;22483;-74
2022/10/16 09:25:28;;;;;;;9.50;7.10;;;;;;;18.58;76.65;99114.89;214589;1310;23260;-74
2022/10/16 09:30:30;;;;;;;9.90;6.50;;;;;;;18.65;74.82;99115.04;214578;1306;24270;-74
2022/10/16 09:35:39;;;;;;;10.00;7.60;;;;;;;18.67;75.13;99120.23;214509;1310;24256;-74
2022/10/16 09:40:42;;;;;;;11.60;8.50;;;;;;;18.79;74.55;99125.31;214537;1297;23039;-74
2022/10/16 09:45:55;;;;;;;13.00;7.60;;;;;;;18.88;74.15;99123.30;214645;1310;22551;-74
2022/10/16 09:51:03;;;;;;;11.60;7.20;;;;;;;18.90;73.40;99126.41;214604;1310;22488;-74
2022/10/16 09:56:06;;;;;;;12.00;7.30;;;;;;;19.02;73.22;99122.08;214512;1310;22475;-74
2022/10/16 10:01:15;;;;;;;9.70;6.90;;;;;;;19.20;73.90;99120.73;214574;1310;22484;-73
2022/10/16 10:06:34;;;;;;;11.00;7.70;;;;;;;19.29;72.17;99133.91;214702;1305;22464;-74
2022/10/16 10:11:58;;;;;;;9.10;6.80;;;;;;;19.28;71.34;99135.45;214567;1310;22475;-73
2022/10/16 10:17:06;;;;;;;8.00;6.30;;;;;;;19.17;70.88;99139.70;214529;1310;22572;-73
2022/10/16 10:22:44;;;;;;;8.50;6.80;;;;;;;19.07;71.75;99144.91;214653;1310;22469;-74
2022/10/16 10:28:04;;;;;;;13.20;7.90;;;;;;;18.85;70.55;99149.63;214523;1310;23751;-74
2022/10/16 10:33:12;;;;;;;9.80;6.40;;;;;;;18.65;71.59;99142.27;214649;1310;25253;-73
2022/10/16 10:38:31;;;;;;;9.00;6.60;;;;;;;18.66;72.19;99138.50;214665;1303;22488;-74
2022/10/16 10:43:45;;;;;;;12.00;6.30;;;;;;;18.73;72.53;99128.88;214491;1310;22480;-74
2022/10/16 10:49:21;;;;;;;8.70;6.40;;;;;;;18.90;73.19;99135.77;214479;1310;22474;-73
2022/10/16 10:54:32;;;;;;;14.90;7.00;;;;;;;19.05;72.59;99136.45;214580;1309;23933;-74
2022/10/16 11:00:09;;;;;;;9.50;6.80;;;;;;;19.12;72.33;99130.63;214509;1310;22615;-75
2022/10/16 11:05:20;;;;;;;17.80;12.10;;;;;;;19.19;72.45;99127.45;214479;1304;22473;-73
2022/10/16 11:10:27;;;;;;;7.70;6.50;;;;;;;19.22;71.68;99134.91;214555;1310;22482;-73
2022/10/16 11:15:40;;;;;;;8.60;6.00;;;;;;;19.18;71.91;99136.19;214551;1309;25312;-74
2022/10/16 11:20:49;;;;;;;8.20;6.00;;;;;;;19.19;72.40;99131.10;214707;1310;22526;-73
2022/10/16 11:25:51;;;;;;;8.40;5.80;;;;;;;19.17;72.16;99131.20;214483;1310;25748;-74
2022/10/16 11:31:00;;;;;;;8.70;5.80;;;;;;;19.05;71.88;99139.57;214557;1310;24368;-74
2022/10/16 11:36:16;;;;;;;19.60;12.40;;;;;;;18.89;72.04;99137.08;214468;1310;25434;-74
2022/10/16 11:41:27;;;;;;;13.40;8.70;;;;;;;18.72;72.15;99135.31;214566;1310;22549;-73
2022/10/16 11:46:32;;;;;;;26.00;17.40;;;;;;;18.62;72.72;99134.02;214659;1310;22476;-74
2022/10/16 11:51:45;;;;;;;13.10;8.50;;;;;;;18.60;73.14;99138.34;214717;1310;22463;-74
2022/10/16 11:56:51;;;;;;;10.40;7.90;;;;;;;18.72;73.35;99146.06;214589;1310;22472;-74
2022/10/16 12:02:27;;;;;;;13.50;9.20;;;;;;;19.01;73.87;99149.45;214571;1304;24271;-75
2022/10/16 12:07:39;;;;;;;8.60;6.20;;;;;;;19.40;72.75;99154.52;214514;1310;23585;-73
2022/10/16 12:12:41;;;;;;;10.30;6.60;;;;;;;19.52;72.35;99164.83;214378;1302;22485;-73
2022/10/16 12:17:43;;;;;;;13.60;9.50;;;;;;;19.52;72.24;99167.61;214573;1310;22619;-74
2022/10/16 12:22:54;;;;;;;10.70;7.30;;;;;;;19.50;71.38;99165.09;214492;1310;22519;-74
2022/10/16 12:27:59;;;;;;;7.00;6.10;;;;;;;19.39;71.04;99162.04;214684;1296;22614;-73
2022/10/16 12:33:19;;;;;;;8.30;5.60;;;;;;;19.23;71.48;99158.33;214684;1309;22520;-74
2022/10/16 12:38:26;;;;;;;8.80;6.10;;;;;;;19.17;72.21;99156.79;214777;1310;22469;-74
2022/10/16 12:43:49;;;;;;;8.90;6.80;;;;;;;19.09;72.63;99163.20;214459;1310;22533;-73
2022/10/16 12:48:51;;;;;;;6.70;5.70;;;;;;;18.99;72.62;99162.63;214676;1310;25395;-74
2022/10/16 12:54:18;;;;;;;8.20;6.60;;;;;;;18.86;72.80;99166.58;214592;1310;22565;-73
2022/10/16 12:59:42;;;;;;;9.20;7.10;;;;;;;18.79;73.30;99165.89;214556;1310;25290;-74
2022/10/16 13:05:28;;;;;;;13.00;7.30;;;;;;;18.89;73.94;99171.21;214673;1310;24724;-74
2022/10/16 13:10:42;;;;;;;8.40;6.50;;;;;;;18.99;73.95;99173.34;214627;1310;24446;-73
2022/10/16 13:16:12;;;;;;;9.40;6.20;;;;;;;19.08;73.64;99171.48;214516;1310;22523;-73
2022/10/16 13:21:39;;;;;;;8.60;6.90;;;;;;;19.18;72.51;99177.55;214597;1310;22527;-74
2022/10/16 13:27:04;;;;;;;10.20;6.50;;;;;;;19.27;72.05;99173.36;214669;1309;27303;-74
2022/10/16 13:32:14;;;;;;;9.60;6.40;;;;;;;19.28;71.62;99170.45;214718;1304;22500;-74
2022/10/16 13:37:21;;;;;;;8.60;6.50;;;;;;;19.26;71.85;99165.41;214647;1297;22609;-74
2022/10/16 13:42:27;;;;;;;9.40;7.20;;;;;;;19.22;71.32;99164.71;214592;1310;22470;-75
2022/10/16 13:47:29;;;;;;;11.60;7.30;;;;;;;19.20;71.65;99156.95;214457;1298;22490;-73
2022/10/16 13:52:32;;;;;;;37.90;26.80;;;;;;;19.27;72.13;99148.36;214617;1309;22647;-73
2022/10/16 13:57:34;;;;;;;9.30;6.70;;;;;;;19.39;71.75;99159.37;214522;1310;24321;-74
2022/10/16 14:02:39;;;;;;;8.20;6.70;;;;;;;19.40;70.69;99172.31;214541;1310;22484;-74
2022/10/16 14:07:42;;;;;;;6.90;6.00;;;;;;;19.38;70.42;99184.56;214769;1310;220027;-72
2022/10/16 14:12:44;;;;;;;9.80;6.60;;;;;;;19.34;69.57;99191.42;214606;1310;22598;-75
2022/10/16 14:17:51;;;;;;;12.50;7.30;;;;;;;19.29;69.78;99188.31;214577;1310;23908;-75
2022/10/16 14:23:01;;;;;;;9.30;6.70;;;;;;;19.20;69.90;99191.65;214595;1303;25181;-75
2022/10/16 14:28:21;;;;;;;7.70;6.50;;;;;;;19.08;69.90;99197.07;214529;1309;24252;-74
2022/10/16 14:33:29;;;;;;;9.10;7.30;;;;;;;18.99;69.91;99192.79;214592;1310;22478;-74
2022/10/16 14:38:32;;;;;;;11.10;7.30;;;;;;;18.92;70.30;99199.14;214582;1310;25313;-76
2022/10/16 14:43:37;;;;;;;11.00;7.70;;;;;;;18.92;70.53;99204.89;214438;1310;24333;-75
2022/10/16 14:48:45;;;;;;;8.50;7.40;;;;;;;18.93;70.87;99217.09;214619;1297;22598;-75
2022/10/16 14:53:47;;;;;;;10.00;7.00;;;;;;;18.93;71.01;99219.44;214514;1310;22481;-75
2022/10/16 14:58:53;;;;;;;9.60;7.20;;;;;;;18.90;70.96;99208.22;214321;1310;22565;-74
2022/10/16 15:03:55;;;;;;;8.20;6.60;;;;;;;18.82;71.10;99203.58;214565;1310;24363;-75
2022/10/16 15:08:57;;;;;;;10.30;7.10;;;;;;;18.68;71.31;99213.71;214481;1310;25250;-75
2022/10/16 15:13:58;;;;;;;10.30;7.70;;;;;;;18.54;71.50;99215.80;214510;1309;22710;-76
2022/10/16 15:19:00;;;;;;;10.80;7.10;;;;;;;18.36;71.90;99212.29;214552;1305;22470;-75
2022/10/16 15:24:02;;;;;;;10.70;7.60;;;;;;;18.18;72.36;99225.70;214416;1309;22728;-74
2022/10/16 15:29:04;;;;;;;8.60;6.50;;;;;;;18.03;72.55;99235.77;214414;1304;22512;-74
2022/10/16 15:34:09;;;;;;;10.00;7.40;;;;;;;17.87;72.97;99238.14;214437;1309;24198;-75
2022/10/16 15:39:15;;;;;;;9.60;7.80;;;;;;;17.70;73.43;99241.89;214475;1310;23884;-75
2022/10/16 15:44:17;;;;;;;9.50;7.70;;;;;;;17.53;73.85;99241.58;214554;1310;22527;-73
2022/10/16 15:49:19;;;;;;;14.30;9.10;;;;;;;17.38;74.21;99240.89;214455;1310;23730;-75
2022/10/16 15:54:22;;;;;;;13.20;8.30;;;;;;;17.20;74.56;99246.77;214470;1310;22725;-74
2022/10/16 15:59:24;;;;;;;11.30;7.60;;;;;;;17.01;74.91;99245.72;214609;1310;25468;-75
2022/10/16 16:04:29;;;;;;;16.00;8.30;;;;;;;16.82;75.32;99243.60;214518;1298;22550;-74
2022/10/16 16:09:45;;;;;;;10.90;8.10;;;;;;;16.62;75.60;99245.81;214720;1310;23804;-75
2022/10/16 16:14:48;;;;;;;12.30;7.70;;;;;;;16.46;76.06;99252.95;214489;1310;22495;-73
2022/10/16 16:19:51;;;;;;;15.40;10.30;;;;;;;16.28;76.44;99258.85;214727;1305;22481;-75
2022/10/16 16:24:52;;;;;;;20.40;10.60;;;;;;;16.11;76.83;99264.85;214552;1310;22467;-73
2022/10/16 16:29:55;;;;;;;17.60;11.30;;;;;;;15.96;77.21;99273.95;214725;1310;25291;-75
2022/10/16 16:34:57;;;;;;;14.80;10.50;;;;;;;15.84;77.50;99288.27;214760;1310;24084;-75
2022/10/16 16:39:58;;;;;;;15.80;11.00;;;;;;;15.75;77.83;99298.27;214519;1310;22531;-74
2022/10/16 16:45:00;;;;;;;16.10;12.00;;;;;;;15.66;78.14;99313.98;214683;1310;23763;-75
2022/10/16 16:50:04;;;;;;;18.70;12.00;;;;;;;15.61;78.71;99316.58;214658;1309;22565;-74
2022/10/16 16:55:07;;;;;;;18.10;11.40;;;;;;;15.60;78.98;99325.91;214606;1309;23743;-75
2022/10/16 17:00:09;;;;;;;16.50;10.70;;;;;;;15.56;79.14;99324.81;214591;1310;23165;-75
2022/10/16 17:05:11;;;;;;;22.30;11.50;;;;;;;15.53;79.51;99326.35;214621;1310;22494;-74
2022/10/16 17:10:13;;;;;;;21.60;12.20;;;;;;;15.50;79.76;99333.44;214539;1306;22468;-75
2022/10/16 17:15:15;;;;;;;19.60;12.00;;;;;;;15.48;80.02;99344.55;214588;1312;23956;-75
2022/10/16 17:20:17;;;;;;;16.90;10.70;;;;;;;15.46;80.11;99349.36;214425;1312;22486;-76
2022/10/16 17:25:18;;;;;;;16.50;12.00;;;;;;;15.45;80.48;99357.23;214486;1310;22468;-75
2022/10/16 17:30:24;;;;;;;23.20;12.10;;;;;;;15.48;80.83;99363.56;214697;1311;25339;-75
2022/10/16 17:35:26;;;;;;;16.60;11.70;;;;;;;15.54;81.20;99365.09;214600;1308;25448;-74
2022/10/16 17:40:28;;;;;;;16.60;11.70;;;;;;;15.62;81.19;99377.05;214390;1304;24299;-74
2022/10/16 17:45:30;;;;;;;17.60;11.40;;;;;;;15.68;81.17;99381.89;214471;1311;22782;-74
2022/10/16 17:50:32;;;;;;;17.00;10.50;;;;;;;15.70;81.03;99387.84;214496;1310;22721;-76
2022/10/16 17:55:42;;;;;;;19.30;10.70;;;;;;;15.67;81.21;99389.36;214495;1311;24404;-75
2022/10/16 18:00:43;;;;;;;18.60;11.50;;;;;;;15.62;81.21;99386.58;214463;1311;25362;-75
2022/10/16 18:05:45;;;;;;;17.90;11.80;;;;;;;15.61;81.47;99388.25;214575;1311;22550;-74
2022/10/16 18:10:49;;;;;;;19.50;11.30;;;;;;;15.63;81.68;99390.88;214506;1312;22482;-76
2022/10/16 18:16:05;;;;;;;17.30;10.80;;;;;;;15.63;81.67;99395.73;214392;1311;22498;-75
2022/10/16 18:21:10;;;;;;;19.20;11.50;;;;;;;15.62;81.74;99402.34;214525;1305;22539;-75
2022/10/16 18:26:13;;;;;;;18.80;11.50;;;;;;;15.63;81.81;99413.11;214485;1311;22565;-74
2022/10/16 18:31:16;;;;;;;15.90;10.50;;;;;;;15.61;81.72;99421.70;214444;1312;22509;-75
2022/10/16 18:36:22;;;;;;;17.50;11.70;;;;;;;15.56;81.78;99415.05;214479;1311;22483;-75
2022/10/16 18:41:25;;;;;;;17.90;12.40;;;;;;;15.48;81.71;99422.80;214412;1312;23746;-74
2022/10/16 18:46:28;;;;;;;24.20;15.60;;;;;;;15.38;81.83;99429.23;214484;1311;22523;-74
2022/10/16 18:51:39;;;;;;;16.50;10.50;;;;;;;15.30;81.94;99429.09;214510;1312;24388;-75
2022/10/16 18:56:41;;;;;;;16.80;11.50;;;;;;;15.24;82.15;99437.36;214425;1310;24294;-76
2022/10/16 19:01:43;;;;;;;15.00;10.50;;;;;;;15.20;82.37;99442.79;214428;1311;22617;-74
2022/10/16 19:06:48;;;;;;;14.30;9.90;;;;;;;15.19;82.57;99446.09;214438;1310;22490;-74
2022/10/16 19:11:50;;;;;;;18.00;10.00;;;;;;;15.22;82.73;99448.25;214470;1312;22495;-74
2022/10/16 19:16:52;;;;;;;20.10;11.00;;;;;;;15.25;82.74;99456.39;214369;1312;22480;-75
2022/10/16 19:22:10;;;;;;;14.80;9.70;;;;;;;15.29;82.87;99467.39;214401;1310;25389;-74
2022/10/16 19:27:12;;;;;;;15.30;9.40;;;;;;;15.33;82.85;99483.34;214494;1312;25215;-75
2022/10/16 19:32:14;;;;;;;18.20;11.30;;;;;;;15.34;82.89;99489.45;214578;1311;25439;-75
2022/10/16 19:37:16;;;;;;;14.70;9.50;;;;;;;15.35;82.90;99491.86;214443;1310;22513;-75
2022/10/16 19:42:17;;;;;;;14.90;10.30;;;;;;;15.37;82.70;99489.88;214460;1305;22678;-75
2022/10/16 19:47:19;;;;;;;17.10;10.10;;;;;;;15.36;82.60;99489.74;214662;1312;25232;-74
2022/10/16 19:52:24;;;;;;;18.60;10.90;;;;;;;15.35;82.51;99487.71;214526;1312;22480;-74
2022/10/16 19:57:26;;;;;;;14.60;9.60;;;;;;;15.33;82.45;99495.15;214429;1311;22628;-74
2022/10/16 20:02:28;;;;;;;18.00;10.60;;;;;;;15.30;82.50;99496.45;214632;1311;22590;-72
2022/10/16 20:07:30;;;;;;;17.20;11.10;;;;;;;15.27;82.44;99493.49;214545;1312;22627;-74
2022/10/16 20:12:35;;;;;;;16.60;10.20;;;;;;;15.22;82.36;99501.35;214542;1304;22485;-75
2022/10/16 20:17:37;;;;;;;15.40;9.30;;;;;;;15.18;82.42;99509.86;214456;1312;25137;-74
2022/10/16 20:22:39;;;;;;;12.80;9.80;;;;;;;15.13;82.42;99509.73;214625;1312;22528;-74
2022/10/16 20:27:40;;;;;;;16.60;10.60;;;;;;;15.04;82.46;99511.77;214602;1311;24276;-76
2022/10/16 20:32:44;;;;;;;16.00;10.60;;;;;;;14.93;82.58;99523.34;214592;1311;22525;-74
2022/10/16 20:37:47;;;;;;;14.80;10.70;;;;;;;14.81;82.57;99530.10;214509;1311;22517;-76
2022/10/16 20:42:49;;;;;;;17.10;11.00;;;;;;;14.65;82.77;99531.89;214561;1311;22472;-73
2022/10/16 20:47:51;;;;;;;19.60;11.40;;;;;;;14.48;82.87;99531.57;214607;1312;22477;-74
2022/10/16 20:52:53;;;;;;;17.70;11.30;;;;;;;14.35;83.24;99539.60;214511;1311;22600;-74
2022/10/16 20:57:55;;;;;;;20.80;13.00;;;;;;;14.24;83.48;99545.65;214663;1311;24363;-74
2022/10/16 21:02:57;;;;;;;16.50;11.00;;;;;;;14.13;83.77;99554.92;214460;1304;22662;-74
2022/10/16 21:07:59;;;;;;;24.60;13.40;;;;;;;13.98;83.86;99562.29;214500;1310;22463;-75
2022/10/16 21:13:02;;;;;;;25.90;14.30;;;;;;;13.87;84.20;99562.99;214524;1311;24433;-74
2022/10/16 21:18:04;;;;;;;22.60;14.40;;;;;;;13.75;84.41;99570.58;214572;1312;22469;-74
2022/10/16 21:23:05;;;;;;;27.00;15.70;;;;;;;13.64;84.69;99572.98;214472;1310;22603;-73
2022/10/16 21:28:07;;;;;;;24.40;14.40;;;;;;;13.53;84.95;99577.21;214657;1312;22548;-74
2022/10/16 21:33:09;;;;;;;26.70;15.70;;;;;;;13.41;85.18;99581.62;214636;1310;24743;-74
2022/10/16 21:38:11;;;;;;;25.40;14.70;;;;;;;13.32;85.51;99591.42;214440;1312;22485;-76
2022/10/16 21:43:13;;;;;;;32.60;15.90;;;;;;;13.24;85.75;99595.83;214468;1304;22484;-74
2022/10/16 21:48:15;;;;;;;25.80;16.00;;;;;;;13.15;86.03;99597.05;214436;1312;22577;-73
2022/10/16 21:53:17;;;;;;;28.50;16.90;;;;;;;13.05;86.17;99594.73;214605;1312;22527;-74
2022/10/16 21:58:19;;;;;;;30.90;17.10;;;;;;;12.95;86.24;99592.18;214626;1303;22620;-75
2022/10/16 22:03:20;;;;;;;29.30;16.60;;;;;;;12.87;86.55;99597.10;214379;1310;22531;-74
2022/10/16 22:08:22;;;;;;;25.80;17.10;;;;;;;12.79;86.78;99591.20;214465;1310;22488;-75
2022/10/16 22:13:24;;;;;;;30.30;17.60;;;;;;;12.70;86.88;99590.05;214585;1310;22522;-74
2022/10/16 22:18:27;;;;;;;32.40;16.80;;;;;;;12.61;87.10;99590.23;214501;1307;22480;-73
2022/10/16 22:23:28;;;;;;;29.00;16.90;;;;;;;12.55;87.51;99590.29;214481;1312;24258;-75
2022/10/16 22:28:30;;;;;;;24.00;13.80;;;;;;;12.50;87.81;99594.63;214514;1311;25467;-74
2022/10/16 22:33:32;;;;;;;25.20;14.50;;;;;;;12.47;88.21;99593.77;214563;1312;22464;-74
2022/10/16 22:38:39;;;;;;;25.50;15.10;;;;;;;12.46;88.51;99599.91;214332;1311;22536;-74
2022/10/16 22:43:44;;;;;;;25.40;14.60;;;;;;;12.44;88.78;99606.70;214474;1303;22479;-75
2022/10/16 22:48:46;;;;;;;29.20;17.10;;;;;;;12.42;88.76;99622.67;214494;1312;25301;-75
2022/10/16 22:53:49;;;;;;;24.20;15.60;;;;;;;12.38;88.94;99631.45;214409;1304;22512;-74
2022/10/16 22:58:51;;;;;;;30.40;17.60;;;;;;;12.34;88.96;99631.61;214618;1311;23687;-74
2022/10/16 23:03:53;;;;;;;38.70;19.50;;;;;;;12.28;89.13;99634.64;214475;1311;22538;-74
2022/10/16 23:08:58;;;;;;;32.40;18.00;;;;;;;12.24;89.29;99630.11;214506;1311;22483;-75
2022/10/16 23:14:06;;;;;;;35.10;18.60;;;;;;;12.18;89.39;99629.92;214611;1304;22587;-76
2022/10/16 23:19:08;;;;;;;28.60;16.30;;;;;;;12.11;89.55;99627.98;214442;1312;22542;-74